Westwood Robson — A8PD8 — position and weather

sailwx.info

Track history (hours):
 
Tides and Currents Weather Stations Pressure Air Temp Water Temp Dewpoint Dewpoint Depression Visibility Wind Speed Wind Dir Waves Ship Positions

Westwood Robson

Last reported at 2018-Jan-25 18:00 UTC. Time now 2018-Feb-20 23:40 UTC.
Position N 32°34' W 117°34'.
Warning: this ship's position is 26 days out of date.

Length 209 m; draft 9.5 m.

Type: Ship (hazmat cat A). MMSI: 636017154.

Date/timePositionNaut miles runAvg speedWind from/ knotsBaromVisibWave heightAir tempDewpointWater temp
2018-Jan-25 18:00N 32°34' W 117°34'1313.1
2018-Jan-25 17:00N 32°45' W 117°43'1314.1
2018-Jan-25 16:05N 32°56' W 117°50'113.9
2018-Jan-25 15:59N 32°57' W 117°51'714.1
2018-Jan-25 15:30N 33°03' W 117°55'44 1.7
2018-Jan-24 14:09N 33°44' W 118°15'0 1.2
2018-Jan-24 13:54N 33°44' W 118°16'2 4.0
2018-Jan-24 13:30N 33°42' W 118°15'5 9.0
2018-Jan-24 12:58N 33°38' W 118°14'510.4
2018-Jan-24 12:28N 33°36' W 118°20'1015.0
2018-Jan-24 11:49N 33°41' W 118°30'514.8
2018-Jan-24 11:30N 33°43' W 118°35'714.6
2018-Jan-24 11:00N 33°47' W 118°43'714.8
2018-Jan-24 10:30N 33°50' W 118°51'814.8
2018-Jan-24 10:00N 33°54' W 118°59'815.0
2018-Jan-24 09:29N 33°58' W 119°06'715.1
2018-Jan-24 09:00N 34°02' W 119°14'611.9
2018-Jan-24 08:30N 34°08' W 119°13'1 1.2
2018-Jan-24 07:16N 34°09' W 119°12'0 0.0
2018-Jan-24 03:28N 34°09' W 119°12'0 0.0
2018-Jan-24 03:01N 34°09' W 119°12'0 0.0
2018-Jan-24 00:07N 34°09' W 119°12'0 0.0
2018-Jan-23 20:40N 34°09' W 119°12'0 0.0
2018-Jan-23 18:55N 34°09' W 119°12'0 0.0
2018-Jan-23 18:27N 34°09' W 119°12'0 0.0
2018-Jan-23 15:55N 34°09' W 119°12'0 0.0
2018-Jan-23 15:31N 34°09' W 119°12'0 0.0
2018-Jan-23 14:37N 34°09' W 119°12'0 0.4
2018-Jan-23 14:28N 34°09' W 119°12'2 4.1
2018-Jan-23 13:58N 34°07' W 119°14'4 8.1
2018-Jan-23 13:28N 34°03' W 119°13'713.9
2018-Jan-23 13:00N 33°60' W 119°06'714.4
2018-Jan-23 12:29N 33°56' W 118°58'714.4
2018-Jan-23 12:01N 33°53' W 118°51'714.8
2018-Jan-23 11:30N 33°49' W 118°43'814.8
2018-Jan-23 10:59N 33°45' W 118°36'714.9
2018-Jan-23 10:30N 33°42' W 118°28'1612.6
2018-Jan-23 09:14N 33°36' W 118°10'311.6
2018-Jan-23 09:00N 33°33' W 118°09'611.9
2018-Jan-23 08:30N 33°28' W 118°06'816.2
2018-Jan-23 08:00N 33°20' W 118°03'816.9
2018-Jan-23 07:30N 33°12' W 117°60'1316.8
2018-Jan-23 06:44N 33°00' W 117°54'516.9
2018-Jan-23 06:27N 32°56' W 117°51'816.8
2018-Jan-23 05:58N 32°49' W 117°47'816.7
2018-Jan-23 05:30N 32°42' W 117°43'1016.3
2018-Jan-23 04:53N 32°32' W 117°38'716.3
2018-Jan-23 04:28N 32°26' W 117°35'716.4
2018-Jan-23 04:00N 32°19' W 117°32'  
Track history (hours):
 
Tides and Currents Weather Stations Pressure Air Temp Water Temp Dewpoint Dewpoint Depression Visibility Wind Speed Wind Dir Waves Ship Positions

Westwood Robson

Last reported at 2018-Jan-25 18:00 UTC. Time now 2018-Feb-20 23:40 UTC.
Position N 32°34' W 117°34'.
Warning: this ship's position is 26 days out of date.

Length 209 m; draft 9.5 m.

Type: Ship (hazmat cat A). MMSI: 636017154.

Date/timePositionNaut miles runAvg speedWind from/ knotsBaromVisibWave heightAir tempDewpointWater temp
2018-Jan-25 18:00N 32°34' W 117°34'1313.1
2018-Jan-25 17:00N 32°45' W 117°43'1314.1
2018-Jan-25 16:05N 32°56' W 117°50'113.9
2018-Jan-25 15:59N 32°57' W 117°51'714.1
2018-Jan-25 15:30N 33°03' W 117°55'44 1.7
2018-Jan-24 14:09N 33°44' W 118°15'0 1.2
2018-Jan-24 13:54N 33°44' W 118°16'2 4.0
2018-Jan-24 13:30N 33°42' W 118°15'5 9.0
2018-Jan-24 12:58N 33°38' W 118°14'510.4
2018-Jan-24 12:28N 33°36' W 118°20'1015.0
2018-Jan-24 11:49N 33°41' W 118°30'514.8
2018-Jan-24 11:30N 33°43' W 118°35'714.6
2018-Jan-24 11:00N 33°47' W 118°43'714.8
2018-Jan-24 10:30N 33°50' W 118°51'814.8
2018-Jan-24 10:00N 33°54' W 118°59'815.0
2018-Jan-24 09:29N 33°58' W 119°06'715.1
2018-Jan-24 09:00N 34°02' W 119°14'611.9
2018-Jan-24 08:30N 34°08' W 119°13'1 1.2
2018-Jan-24 07:16N 34°09' W 119°12'0 0.0
2018-Jan-24 03:28N 34°09' W 119°12'0 0.0
2018-Jan-24 03:01N 34°09' W 119°12'0 0.0
2018-Jan-24 00:07N 34°09' W 119°12'0 0.0
2018-Jan-23 20:40N 34°09' W 119°12'0 0.0
2018-Jan-23 18:55N 34°09' W 119°12'0 0.0
2018-Jan-23 18:27N 34°09' W 119°12'0 0.0
2018-Jan-23 15:55N 34°09' W 119°12'0 0.0
2018-Jan-23 15:31N 34°09' W 119°12'0 0.0
2018-Jan-23 14:37N 34°09' W 119°12'0 0.4
2018-Jan-23 14:28N 34°09' W 119°12'2 4.1
2018-Jan-23 13:58N 34°07' W 119°14'4 8.1
2018-Jan-23 13:28N 34°03' W 119°13'713.9
2018-Jan-23 13:00N 33°60' W 119°06'714.4
2018-Jan-23 12:29N 33°56' W 118°58'714.4
2018-Jan-23 12:01N 33°53' W 118°51'714.8
2018-Jan-23 11:30N 33°49' W 118°43'814.8
2018-Jan-23 10:59N 33°45' W 118°36'714.9
2018-Jan-23 10:30N 33°42' W 118°28'1612.6
2018-Jan-23 09:14N 33°36' W 118°10'311.6
2018-Jan-23 09:00N 33°33' W 118°09'611.9
2018-Jan-23 08:30N 33°28' W 118°06'816.2
2018-Jan-23 08:00N 33°20' W 118°03'816.9
2018-Jan-23 07:30N 33°12' W 117°60'1316.8
2018-Jan-23 06:44N 33°00' W 117°54'516.9
2018-Jan-23 06:27N 32°56' W 117°51'816.8
2018-Jan-23 05:58N 32°49' W 117°47'816.7
2018-Jan-23 05:30N 32°42' W 117°43'1016.3
2018-Jan-23 04:53N 32°32' W 117°38'716.3
2018-Jan-23 04:28N 32°26' W 117°35'716.4
2018-Jan-23 04:00N 32°19' W 117°32'  

Dump ship's entire track history